sensor_id;sensor_type;location;lat;lon;timestamp;temperature;humidity
38746;DHT22;24488;0.000;0.000;2022-11-20T00:01:46;22.80;74.80
38746;DHT22;24488;0.000;0.000;2022-11-20T00:04:12;23.00;75.00
38746;DHT22;24488;0.000;0.000;2022-11-20T00:06:37;22.80;74.80
38746;DHT22;24488;0.000;0.000;2022-11-20T00:09:03;22.40;74.50
38746;DHT22;24488;0.000;0.000;2022-11-20T00:11:30;22.90;74.80
38746;DHT22;24488;0.000;0.000;2022-11-20T00:13:57;23.00;74.80
38746;DHT22;24488;0.000;0.000;2022-11-20T00:16:26;22.90;74.70
38746;DHT22;24488;0.000;0.000;2022-11-20T00:18:52;23.00;74.60
38746;DHT22;24488;0.000;0.000;2022-11-20T00:21:19;22.90;74.70
38746;DHT22;24488;0.000;0.000;2022-11-20T00:23:46;22.80;74.60
38746;DHT22;24488;0.000;0.000;2022-11-20T00:26:13;22.90;74.60
38746;DHT22;24488;0.000;0.000;2022-11-20T00:28:40;22.90;74.70
38746;DHT22;24488;0.000;0.000;2022-11-20T00:31:10;22.80;74.60
38746;DHT22;24488;0.000;0.000;2022-11-20T00:33:40;23.00;75.00
38746;DHT22;24488;0.000;0.000;2022-11-20T00:36:07;22.80;74.70
38746;DHT22;24488;0.000;0.000;2022-11-20T00:38:34;22.80;74.70
38746;DHT22;24488;0.000;0.000;2022-11-20T00:43:27;22.70;74.00
38746;DHT22;24488;0.000;0.000;2022-11-20T00:45:56;22.80;74.80
38746;DHT22;24488;0.000;0.000;2022-11-20T00:48:42;22.70;74.70
38746;DHT22;24488;0.000;0.000;2022-11-20T00:51:08;22.90;75.00
38746;DHT22;24488;0.000;0.000;2022-11-20T00:53:36;22.70;74.80
38746;DHT22;24488;0.000;0.000;2022-11-20T00:56:03;22.90;75.70
38746;DHT22;24488;0.000;0.000;2022-11-20T00:58:35;22.70;74.80
38746;DHT22;24488;0.000;0.000;2022-11-20T01:01:03;23.00;75.00
38746;DHT22;24488;0.000;0.000;2022-11-20T01:03:33;23.00;74.80
38746;DHT22;24488;0.000;0.000;2022-11-20T01:06:00;22.70;74.70
38746;DHT22;24488;0.000;0.000;2022-11-20T01:08:31;22.80;74.80
38746;DHT22;24488;0.000;0.000;2022-11-20T01:11:04;22.80;74.60
38746;DHT22;24488;0.000;0.000;2022-11-20T01:13:37;22.80;74.60
38746;DHT22;24488;0.000;0.000;2022-11-20T01:16:08;22.90;74.70
38746;DHT22;24488;0.000;0.000;2022-11-20T01:18:38;22.80;74.50
38746;DHT22;24488;0.000;0.000;2022-11-20T01:21:06;22.90;74.70
38746;DHT22;24488;0.000;0.000;2022-11-20T01:23:34;22.80;74.60
38746;DHT22;24488;0.000;0.000;2022-11-20T01:26:03;22.80;74.70
38746;DHT22;24488;0.000;0.000;2022-11-20T01:28:30;22.80;74.60
38746;DHT22;24488;0.000;0.000;2022-11-20T01:30:57;22.90;74.70
38746;DHT22;24488;0.000;0.000;2022-11-20T01:33:22;22.90;74.70
38746;DHT22;24488;0.000;0.000;2022-11-20T01:38:15;22.70;74.40
38746;DHT22;24488;0.000;0.000;2022-11-20T01:40:41;22.80;74.80
38746;DHT22;24488;0.000;0.000;2022-11-20T01:43:14;22.70;74.70
38746;DHT22;24488;0.000;0.000;2022-11-20T01:48:53;22.60;74.30
38746;DHT22;24488;0.000;0.000;2022-11-20T01:51:25;22.70;74.70
38746;DHT22;24488;0.000;0.000;2022-11-20T01:53:57;22.70;74.70
38746;DHT22;24488;0.000;0.000;2022-11-20T01:56:25;22.70;74.70
38746;DHT22;24488;0.000;0.000;2022-11-20T01:58:53;22.70;74.60
38746;DHT22;24488;0.000;0.000;2022-11-20T02:01:20;22.80;74.70
38746;DHT22;24488;0.000;0.000;2022-11-20T02:03:46;22.80;74.60
38746;DHT22;24488;0.000;0.000;2022-11-20T02:06:21;22.70;74.30
38746;DHT22;24488;0.000;0.000;2022-11-20T02:08:50;22.80;74.50
38746;DHT22;24488;0.000;0.000;2022-11-20T02:11:16;22.80;74.60
38746;DHT22;24488;0.000;0.000;2022-11-20T02:13:42;22.70;74.70
38746;DHT22;24488;0.000;0.000;2022-11-20T02:16:12;22.90;76.30
38746;DHT22;24488;0.000;0.000;2022-11-20T02:18:46;22.70;74.60
38746;DHT22;24488;0.000;0.000;2022-11-20T02:24:10;22.70;74.80
38746;DHT22;24488;0.000;0.000;2022-11-20T02:26:48;22.90;74.90
38746;DHT22;24488;0.000;0.000;2022-11-20T02:31:45;22.70;74.40
38746;DHT22;24488;0.000;0.000;2022-11-20T02:34:10;22.70;75.00
38746;DHT22;24488;0.000;0.000;2022-11-20T02:36:36;22.70;74.70
38746;DHT22;24488;0.000;0.000;2022-11-20T02:39:04;22.60;75.30
38746;DHT22;24488;0.000;0.000;2022-11-20T02:41:34;22.70;74.90
38746;DHT22;24488;0.000;0.000;2022-11-20T02:44:02;22.70;74.90
38746;DHT22;24488;0.000;0.000;2022-11-20T02:46:29;22.40;74.60
38746;DHT22;24488;0.000;0.000;2022-11-20T02:48:55;22.60;74.90
38746;DHT22;24488;0.000;0.000;2022-11-20T02:51:21;22.70;75.30
38746;DHT22;24488;0.000;0.000;2022-11-20T02:53:47;22.70;74.90
38746;DHT22;24488;0.000;0.000;2022-11-20T02:56:12;22.70;74.80
38746;DHT22;24488;0.000;0.000;2022-11-20T02:58:40;22.70;73.90
38746;DHT22;24488;0.000;0.000;2022-11-20T03:03:32;22.70;74.10
38746;DHT22;24488;0.000;0.000;2022-11-20T03:06:00;22.80;75.00
38746;DHT22;24488;0.000;0.000;2022-11-20T03:08:26;22.70;74.60
38746;DHT22;24488;0.000;0.000;2022-11-20T03:10:52;22.70;75.00
38746;DHT22;24488;0.000;0.000;2022-11-20T03:13:17;22.70;74.70
38746;DHT22;24488;0.000;0.000;2022-11-20T03:15:43;22.70;74.80
38746;DHT22;24488;0.000;0.000;2022-11-20T03:18:08;22.70;74.90
38746;DHT22;24488;0.000;0.000;2022-11-20T03:23:00;22.70;74.30
38746;DHT22;24488;0.000;0.000;2022-11-20T03:25:26;22.70;74.90
38746;DHT22;24488;0.000;0.000;2022-11-20T03:27:51;22.60;74.90
38746;DHT22;24488;0.000;0.000;2022-11-20T03:30:17;22.70;75.10
38746;DHT22;24488;0.000;0.000;2022-11-20T03:32:43;22.70;74.90
38746;DHT22;24488;0.000;0.000;2022-11-20T03:37:34;22.60;74.20
38746;DHT22;24488;0.000;0.000;2022-11-20T03:40:00;22.70;75.20
38746;DHT22;24488;0.000;0.000;2022-11-20T03:42:25;22.60;74.90
38746;DHT22;24488;0.000;0.000;2022-11-20T03:45:10;22.70;74.90
38746;DHT22;24488;0.000;0.000;2022-11-20T03:47:35;22.70;74.80
38746;DHT22;24488;0.000;0.000;2022-11-20T03:50:01;22.70;74.70
38746;DHT22;24488;0.000;0.000;2022-11-20T03:52:26;22.90;75.00
38746;DHT22;24488;0.000;0.000;2022-11-20T03:54:52;22.80;74.80
38746;DHT22;24488;0.000;0.000;2022-11-20T03:59:43;22.30;74.30
38746;DHT22;24488;0.000;0.000;2022-11-20T04:02:09;22.70;74.90
38746;DHT22;24488;0.000;0.000;2022-11-20T04:04:34;22.60;74.80
38746;DHT22;24488;0.000;0.000;2022-11-20T04:07:00;22.60;74.90
38746;DHT22;24488;0.000;0.000;2022-11-20T04:09:26;22.60;75.10
38746;DHT22;24488;0.000;0.000;2022-11-20T04:11:51;22.60;75.00
38746;DHT22;24488;0.000;0.000;2022-11-20T04:14:17;22.60;74.80
38746;DHT22;24488;0.000;0.000;2022-11-20T04:16:42;22.80;75.10
38746;DHT22;24488;0.000;0.000;2022-11-20T04:19:12;22.60;74.90
38746;DHT22;24488;0.000;0.000;2022-11-20T04:21:39;22.70;74.70
38746;DHT22;24488;0.000;0.000;2022-11-20T04:24:05;22.70;75.30
38746;DHT22;24488;0.000;0.000;2022-11-20T04:26:31;22.60;75.00
38746;DHT22;24488;0.000;0.000;2022-11-20T04:28:58;22.60;74.80
38746;DHT22;24488;0.000;0.000;2022-11-20T04:31:28;22.60;74.80
38746;DHT22;24488;0.000;0.000;2022-11-20T04:33:54;22.70;74.90
38746;DHT22;24488;0.000;0.000;2022-11-20T04:36:21;22.70;75.60
38746;DHT22;24488;0.000;0.000;2022-11-20T04:38:55;23.00;74.80
38746;DHT22;24488;0.000;0.000;2022-11-20T04:41:26;22.70;74.90
38746;DHT22;24488;0.000;0.000;2022-11-20T04:43:54;22.70;74.60
38746;DHT22;24488;0.000;0.000;2022-11-20T04:46:29;22.80;74.70
38746;DHT22;24488;0.000;0.000;2022-11-20T04:48:59;22.70;74.70
38746;DHT22;24488;0.000;0.000;2022-11-20T04:51:24;22.60;74.70
38746;DHT22;24488;0.000;0.000;2022-11-20T04:53:50;22.80;75.00
38746;DHT22;24488;0.000;0.000;2022-11-20T04:56:16;22.60;74.70
38746;DHT22;24488;0.000;0.000;2022-11-20T04:58:42;22.60;75.00
38746;DHT22;24488;0.000;0.000;2022-11-20T05:01:18;22.60;74.90
38746;DHT22;24488;0.000;0.000;2022-11-20T05:03:46;22.60;74.60
38746;DHT22;24488;0.000;0.000;2022-11-20T05:06:12;22.80;74.80
38746;DHT22;24488;0.000;0.000;2022-11-20T05:11:05;22.60;74.20
38746;DHT22;24488;0.000;0.000;2022-11-20T05:13:33;22.60;74.70
38746;DHT22;24488;0.000;0.000;2022-11-20T05:16:02;22.70;74.80
38746;DHT22;24488;0.000;0.000;2022-11-20T05:18:29;22.70;74.70
38746;DHT22;24488;0.000;0.000;2022-11-20T05:20:55;22.60;74.70
38746;DHT22;24488;0.000;0.000;2022-11-20T05:23:24;22.70;74.70
38746;DHT22;24488;0.000;0.000;2022-11-20T05:25:53;22.70;74.70
38746;DHT22;24488;0.000;0.000;2022-11-20T05:28:20;22.60;74.60
38746;DHT22;24488;0.000;0.000;2022-11-20T05:30:46;22.70;74.70
38746;DHT22;24488;0.000;0.000;2022-11-20T05:33:12;22.80;74.90
38746;DHT22;24488;0.000;0.000;2022-11-20T05:35:37;22.60;74.60
38746;DHT22;24488;0.000;0.000;2022-11-20T05:38:03;22.60;74.70
38746;DHT22;24488;0.000;0.000;2022-11-20T05:40:28;22.80;74.90
38746;DHT22;24488;0.000;0.000;2022-11-20T05:42:54;22.70;74.90
38746;DHT22;24488;0.000;0.000;2022-11-20T05:45:19;22.70;74.90
38746;DHT22;24488;0.000;0.000;2022-11-20T05:47:45;22.90;75.10
38746;DHT22;24488;0.000;0.000;2022-11-20T05:50:10;22.80;74.90
38746;DHT22;24488;0.000;0.000;2022-11-20T05:52:36;22.60;75.00
38746;DHT22;24488;0.000;0.000;2022-11-20T05:55:02;22.60;74.80
38746;DHT22;24488;0.000;0.000;2022-11-20T05:57:27;22.60;74.80
38746;DHT22;24488;0.000;0.000;2022-11-20T05:59:53;22.70;74.70
38746;DHT22;24488;0.000;0.000;2022-11-20T06:02:18;22.70;74.60
38746;DHT22;24488;0.000;0.000;2022-11-20T06:04:44;22.80;74.60
38746;DHT22;24488;0.000;0.000;2022-11-20T06:07:10;22.80;74.50
38746;DHT22;24488;0.000;0.000;2022-11-20T06:09:35;22.70;74.40
38746;DHT22;24488;0.000;0.000;2022-11-20T06:12:01;22.80;74.40
38746;DHT22;24488;0.000;0.000;2022-11-20T06:14:26;22.70;74.50
38746;DHT22;24488;0.000;0.000;2022-11-20T06:16:52;22.70;74.40
38746;DHT22;24488;0.000;0.000;2022-11-20T06:19:18;22.90;74.70
38746;DHT22;24488;0.000;0.000;2022-11-20T06:21:43;22.80;74.70
38746;DHT22;24488;0.000;0.000;2022-11-20T06:24:09;23.00;74.80
38746;DHT22;24488;0.000;0.000;2022-11-20T06:26:35;22.70;74.50
38746;DHT22;24488;0.000;0.000;2022-11-20T06:29:01;22.80;74.60
38746;DHT22;24488;0.000;0.000;2022-11-20T06:31:26;22.70;74.70
38746;DHT22;24488;0.000;0.000;2022-11-20T06:33:52;22.70;74.70
38746;DHT22;24488;0.000;0.000;2022-11-20T06:36:19;22.70;74.70
38746;DHT22;24488;0.000;0.000;2022-11-20T06:38:46;22.60;74.60
38746;DHT22;24488;0.000;0.000;2022-11-20T06:41:12;22.70;74.60
38746;DHT22;24488;0.000;0.000;2022-11-20T06:43:40;22.70;74.40
38746;DHT22;24488;0.000;0.000;2022-11-20T06:46:05;22.70;74.30
38746;DHT22;24488;0.000;0.000;2022-11-20T06:48:31;22.70;74.50
38746;DHT22;24488;0.000;0.000;2022-11-20T06:50:57;22.80;74.40
38746;DHT22;24488;0.000;0.000;2022-11-20T06:53:23;22.90;74.40
38746;DHT22;24488;0.000;0.000;2022-11-20T06:55:49;22.90;74.50
38746;DHT22;24488;0.000;0.000;2022-11-20T06:58:15;22.80;74.50
38746;DHT22;24488;0.000;0.000;2022-11-20T07:00:41;22.70;74.30
38746;DHT22;24488;0.000;0.000;2022-11-20T07:03:08;22.80;74.50
38746;DHT22;24488;0.000;0.000;2022-11-20T07:05:34;23.00;74.50
38746;DHT22;24488;0.000;0.000;2022-11-20T07:08:00;22.80;74.30
38746;DHT22;24488;0.000;0.000;2022-11-20T07:10:26;22.80;74.40
38746;DHT22;24488;0.000;0.000;2022-11-20T07:12:52;22.80;74.40
38746;DHT22;24488;0.000;0.000;2022-11-20T07:15:19;23.00;74.60
38746;DHT22;24488;0.000;0.000;2022-11-20T07:17:45;22.80;74.30
38746;DHT22;24488;0.000;0.000;2022-11-20T07:20:11;23.10;74.50
38746;DHT22;24488;0.000;0.000;2022-11-20T07:22:37;22.90;74.40
38746;DHT22;24488;0.000;0.000;2022-11-20T07:25:03;23.20;74.60
38746;DHT22;24488;0.000;0.000;2022-11-20T07:27:29;22.80;74.40
38746;DHT22;24488;0.000;0.000;2022-11-20T07:29:55;22.90;74.30
38746;DHT22;24488;0.000;0.000;2022-11-20T07:32:22;23.00;74.40
38746;DHT22;24488;0.000;0.000;2022-11-20T07:34:48;22.90;74.40
38746;DHT22;24488;0.000;0.000;2022-11-20T07:37:14;22.90;74.30
38746;DHT22;24488;0.000;0.000;2022-11-20T07:39:39;23.00;74.50
38746;DHT22;24488;0.000;0.000;2022-11-20T07:42:08;22.90;74.30
38746;DHT22;24488;0.000;0.000;2022-11-20T07:44:34;22.90;74.40
38746;DHT22;24488;0.000;0.000;2022-11-20T07:46:59;22.90;74.30
38746;DHT22;24488;0.000;0.000;2022-11-20T07:49:25;22.90;73.90
38746;DHT22;24488;0.000;0.000;2022-11-20T07:51:51;22.90;75.30
38746;DHT22;24488;0.000;0.000;2022-11-20T07:54:19;22.90;74.20
38746;DHT22;24488;0.000;0.000;2022-11-20T07:56:45;22.90;74.30
38746;DHT22;24488;0.000;0.000;2022-11-20T07:59:11;22.90;74.30
38746;DHT22;24488;0.000;0.000;2022-11-20T08:01:40;23.00;74.60
38746;DHT22;24488;0.000;0.000;2022-11-20T08:04:06;22.90;74.30
38746;DHT22;24488;0.000;0.000;2022-11-20T08:06:32;22.90;74.30
38746;DHT22;24488;0.000;0.000;2022-11-20T08:08:58;22.90;74.30
38746;DHT22;24488;0.000;0.000;2022-11-20T08:11:24;22.90;74.40
38746;DHT22;24488;0.000;0.000;2022-11-20T08:14:07;22.90;74.20
38746;DHT22;24488;0.000;0.000;2022-11-20T08:16:40;23.00;74.60
38746;DHT22;24488;0.000;0.000;2022-11-20T08:19:07;23.00;74.30
38746;DHT22;24488;0.000;0.000;2022-11-20T08:21:33;22.90;74.30
38746;DHT22;24488;0.000;0.000;2022-11-20T08:23:59;22.90;74.20
38746;DHT22;24488;0.000;0.000;2022-11-20T08:26:24;22.90;74.40
38746;DHT22;24488;0.000;0.000;2022-11-20T08:28:54;23.00;74.40
38746;DHT22;24488;0.000;0.000;2022-11-20T08:31:26;22.90;74.20
38746;DHT22;24488;0.000;0.000;2022-11-20T08:33:52;23.20;74.30
38746;DHT22;24488;0.000;0.000;2022-11-20T08:36:18;23.00;74.10
38746;DHT22;24488;0.000;0.000;2022-11-20T08:38:48;23.00;74.10
38746;DHT22;24488;0.000;0.000;2022-11-20T08:41:14;22.90;74.00
38746;DHT22;24488;0.000;0.000;2022-11-20T08:43:49;23.10;74.30
38746;DHT22;24488;0.000;0.000;2022-11-20T08:46:15;23.10;74.60
38746;DHT22;24488;0.000;0.000;2022-11-20T08:48:41;23.20;75.00
38746;DHT22;24488;0.000;0.000;2022-11-20T08:51:07;23.00;74.30
38746;DHT22;24488;0.000;0.000;2022-11-20T08:53:32;23.00;74.30
38746;DHT22;24488;0.000;0.000;2022-11-20T08:55:58;23.10;74.40
38746;DHT22;24488;0.000;0.000;2022-11-20T08:58:24;23.10;74.30
38746;DHT22;24488;0.000;0.000;2022-11-20T09:00:50;23.20;74.20
38746;DHT22;24488;0.000;0.000;2022-11-20T09:03:15;23.00;74.20
38746;DHT22;24488;0.000;0.000;2022-11-20T09:05:41;23.10;74.30
38746;DHT22;24488;0.000;0.000;2022-11-20T09:08:08;23.20;74.40
38746;DHT22;24488;0.000;0.000;2022-11-20T09:10:33;23.00;74.10
38746;DHT22;24488;0.000;0.000;2022-11-20T09:12:59;23.00;74.20
38746;DHT22;24488;0.000;0.000;2022-11-20T09:15:25;23.10;74.30
38746;DHT22;24488;0.000;0.000;2022-11-20T09:17:55;23.00;74.10
38746;DHT22;24488;0.000;0.000;2022-11-20T09:20:21;23.10;74.00
38746;DHT22;24488;0.000;0.000;2022-11-20T09:22:47;23.10;74.10
38746;DHT22;24488;0.000;0.000;2022-11-20T09:25:12;23.10;74.10
38746;DHT22;24488;0.000;0.000;2022-11-20T09:27:38;23.10;74.40
38746;DHT22;24488;0.000;0.000;2022-11-20T09:30:04;23.20;74.30
38746;DHT22;24488;0.000;0.000;2022-11-20T09:32:30;23.10;74.10
38746;DHT22;24488;0.000;0.000;2022-11-20T09:34:55;23.10;74.20
38746;DHT22;24488;0.000;0.000;2022-11-20T09:37:21;23.10;74.20
38746;DHT22;24488;0.000;0.000;2022-11-20T09:39:48;23.00;74.30
38746;DHT22;24488;0.000;0.000;2022-11-20T09:50:32;23.10;74.00
38746;DHT22;24488;0.000;0.000;2022-11-20T09:56:00;23.00;74.00
38746;DHT22;24488;0.000;0.000;2022-11-20T09:58:29;23.10;74.20
38746;DHT22;24488;0.000;0.000;2022-11-20T10:01:17;23.10;74.20
38746;DHT22;24488;0.000;0.000;2022-11-20T10:03:52;23.10;74.10
38746;DHT22;24488;0.000;0.000;2022-11-20T10:06:31;23.00;73.90
38746;DHT22;24488;0.000;0.000;2022-11-20T10:11:51;23.10;74.00
38746;DHT22;24488;0.000;0.000;2022-11-20T10:17:50;23.10;74.00
38746;DHT22;24488;0.000;0.000;2022-11-20T10:26:03;22.80;73.80
38746;DHT22;24488;0.000;0.000;2022-11-20T10:31:27;23.10;73.90
38746;DHT22;24488;0.000;0.000;2022-11-20T10:33:54;23.00;74.00
38746;DHT22;24488;0.000;0.000;2022-11-20T10:36:22;23.10;74.00
38746;DHT22;24488;0.000;0.000;2022-11-20T10:38:58;23.10;74.20
38746;DHT22;24488;0.000;0.000;2022-11-20T10:41:27;23.10;73.90
38746;DHT22;24488;0.000;0.000;2022-11-20T10:46:38;23.00;74.50
38746;DHT22;24488;0.000;0.000;2022-11-20T10:49:11;23.10;73.90
38746;DHT22;24488;0.000;0.000;2022-11-20T10:51:52;23.10;74.00
38746;DHT22;24488;0.000;0.000;2022-11-20T10:57:46;23.10;73.90
38746;DHT22;24488;0.000;0.000;2022-11-20T11:00:09;23.10;73.90
38746;DHT22;24488;0.000;0.000;2022-11-20T11:05:10;23.00;73.40
38746;DHT22;24488;0.000;0.000;2022-11-20T11:07:40;23.00;74.10
38746;DHT22;24488;0.000;0.000;2022-11-20T11:10:27;23.20;74.00
38746;DHT22;24488;0.000;0.000;2022-11-20T11:13:00;23.00;73.50
38746;DHT22;24488;0.000;0.000;2022-11-20T11:15:27;23.10;74.10
38746;DHT22;24488;0.000;0.000;2022-11-20T11:18:04;23.10;74.00
38746;DHT22;24488;0.000;0.000;2022-11-20T11:22:57;23.00;73.00
38746;DHT22;24488;0.000;0.000;2022-11-20T11:27:53;23.00;73.10
38746;DHT22;24488;0.000;0.000;2022-11-20T11:30:21;23.10;74.00
38746;DHT22;24488;0.000;0.000;2022-11-20T11:32:48;23.10;74.40
38746;DHT22;24488;0.000;0.000;2022-11-20T11:35:24;23.10;74.30
38746;DHT22;24488;0.000;0.000;2022-11-20T11:37:53;23.20;73.80
38746;DHT22;24488;0.000;0.000;2022-11-20T11:40:26;23.20;74.20
38746;DHT22;24488;0.000;0.000;2022-11-20T11:43:02;23.10;74.30
38746;DHT22;24488;0.000;0.000;2022-11-20T11:45:30;23.10;74.30
38746;DHT22;24488;0.000;0.000;2022-11-20T11:47:57;23.30;74.60
38746;DHT22;24488;0.000;0.000;2022-11-20T11:50:25;23.20;74.40
38746;DHT22;24488;0.000;0.000;2022-11-20T11:55:25;23.10;73.80
38746;DHT22;24488;0.000;0.000;2022-11-20T11:57:54;23.30;74.60
38746;DHT22;24488;0.000;0.000;2022-11-20T12:00:25;23.20;74.30
38746;DHT22;24488;0.000;0.000;2022-11-20T12:02:57;23.20;74.70
38746;DHT22;24488;0.000;0.000;2022-11-20T12:05:32;23.20;74.40
38746;DHT22;24488;0.000;0.000;2022-11-20T12:08:05;23.30;74.30
38746;DHT22;24488;0.000;0.000;2022-11-20T12:15:50;23.20;74.10
38746;DHT22;24488;0.000;0.000;2022-11-20T12:18:16;23.30;74.30
38746;DHT22;24488;0.000;0.000;2022-11-20T12:20:45;23.30;74.00
38746;DHT22;24488;0.000;0.000;2022-11-20T12:23:20;23.30;73.90
38746;DHT22;24488;0.000;0.000;2022-11-20T12:25:51;23.30;74.00
38746;DHT22;24488;0.000;0.000;2022-11-20T12:39:35;23.40;74.20
38746;DHT22;24488;0.000;0.000;2022-11-20T12:42:22;23.60;74.20
38746;DHT22;24488;0.000;0.000;2022-11-20T12:45:35;23.20;73.80
38746;DHT22;24488;0.000;0.000;2022-11-20T12:59:32;23.20;74.00
38746;DHT22;24488;0.000;0.000;2022-11-20T13:07:19;23.10;74.00
38746;DHT22;24488;0.000;0.000;2022-11-20T13:09:47;23.30;74.20
38746;DHT22;24488;0.000;0.000;2022-11-20T13:12:15;23.30;74.50
38746;DHT22;24488;0.000;0.000;2022-11-20T13:14:46;23.10;73.90
38746;DHT22;24488;0.000;0.000;2022-11-20T13:17:37;23.10;73.90
38746;DHT22;24488;0.000;0.000;2022-11-20T13:20:18;23.10;73.90
38746;DHT22;24488;0.000;0.000;2022-11-20T13:22:51;23.30;73.80
38746;DHT22;24488;0.000;0.000;2022-11-20T13:27:54;23.30;74.00
38746;DHT22;24488;0.000;0.000;2022-11-20T13:30:22;23.20;73.70
38746;DHT22;24488;0.000;0.000;2022-11-20T13:32:56;23.30;73.70
38746;DHT22;24488;0.000;0.000;2022-11-20T13:35:25;23.20;74.10
38746;DHT22;24488;0.000;0.000;2022-11-20T13:38:07;23.20;73.80
38746;DHT22;24488;0.000;0.000;2022-11-20T13:40:35;23.20;73.70
38746;DHT22;24488;0.000;0.000;2022-11-20T13:46:08;23.20;73.60
38746;DHT22;24488;0.000;0.000;2022-11-20T13:48:41;23.30;73.70
38746;DHT22;24488;0.000;0.000;2022-11-20T13:56:47;23.30;74.30
38746;DHT22;24488;0.000;0.000;2022-11-20T13:59:43;23.40;74.00
38746;DHT22;24488;0.000;0.000;2022-11-20T14:04:58;23.20;73.20
38746;DHT22;24488;0.000;0.000;2022-11-20T14:07:39;23.20;73.80
38746;DHT22;24488;0.000;0.000;2022-11-20T14:10:18;23.30;73.60
38746;DHT22;24488;0.000;0.000;2022-11-20T14:12:45;23.20;73.70
38746;DHT22;24488;0.000;0.000;2022-11-20T14:18:13;23.30;73.60
38746;DHT22;24488;0.000;0.000;2022-11-20T14:20:41;23.30;73.70
38746;DHT22;24488;0.000;0.000;2022-11-20T14:23:08;23.40;73.80
38746;DHT22;24488;0.000;0.000;2022-11-20T14:25:35;23.50;73.60
38746;DHT22;24488;0.000;0.000;2022-11-20T14:28:01;23.20;73.80
38746;DHT22;24488;0.000;0.000;2022-11-20T14:30:28;23.40;73.80
38746;DHT22;24488;0.000;0.000;2022-11-20T14:33:09;23.50;74.00
38746;DHT22;24488;0.000;0.000;2022-11-20T14:35:37;23.60;74.30
38746;DHT22;24488;0.000;0.000;2022-11-20T14:38:09;23.30;73.90
38746;DHT22;24488;0.000;0.000;2022-11-20T14:40:38;23.40;74.20
38746;DHT22;24488;0.000;0.000;2022-11-20T14:43:21;23.40;74.20
38746;DHT22;24488;0.000;0.000;2022-11-20T14:46:09;23.40;74.00
38746;DHT22;24488;0.000;0.000;2022-11-20T14:48:39;23.50;74.20
38746;DHT22;24488;0.000;0.000;2022-11-20T14:51:08;23.40;74.10
38746;DHT22;24488;0.000;0.000;2022-11-20T14:53:48;23.40;74.90
38746;DHT22;24488;0.000;0.000;2022-11-20T14:56:13;23.40;74.30
38746;DHT22;24488;0.000;0.000;2022-11-20T14:58:55;23.40;74.10
38746;DHT22;24488;0.000;0.000;2022-11-20T15:01:30;23.60;74.30
38746;DHT22;24488;0.000;0.000;2022-11-20T15:04:07;23.50;74.20
38746;DHT22;24488;0.000;0.000;2022-11-20T15:06:35;23.60;74.40
38746;DHT22;24488;0.000;0.000;2022-11-20T15:09:02;23.50;74.30
38746;DHT22;24488;0.000;0.000;2022-11-20T15:11:30;23.50;74.20
38746;DHT22;24488;0.000;0.000;2022-11-20T15:13:58;23.70;74.30
38746;DHT22;24488;0.000;0.000;2022-11-20T15:16:28;23.50;74.20
38746;DHT22;24488;0.000;0.000;2022-11-20T15:18:53;23.40;74.20
38746;DHT22;24488;0.000;0.000;2022-11-20T15:21:19;23.60;74.20
38746;DHT22;24488;0.000;0.000;2022-11-20T15:23:47;23.90;74.40
38746;DHT22;24488;0.000;0.000;2022-11-20T15:26:14;23.50;73.90
38746;DHT22;24488;0.000;0.000;2022-11-20T15:28:50;23.50;74.00
38746;DHT22;24488;0.000;0.000;2022-11-20T15:31:17;23.40;73.20
38746;DHT22;24488;0.000;0.000;2022-11-20T15:33:44;23.30;70.80
38746;DHT22;24488;0.000;0.000;2022-11-20T15:36:10;23.40;71.80
38746;DHT22;24488;0.000;0.000;2022-11-20T15:38:36;23.30;72.50
38746;DHT22;24488;0.000;0.000;2022-11-20T15:41:02;23.20;72.40
38746;DHT22;24488;0.000;0.000;2022-11-20T15:43:27;23.30;72.80
38746;DHT22;24488;0.000;0.000;2022-11-20T15:46:03;23.20;72.60
38746;DHT22;24488;0.000;0.000;2022-11-20T15:48:41;23.20;72.50
38746;DHT22;24488;0.000;0.000;2022-11-20T15:53:38;23.20;72.80
38746;DHT22;24488;0.000;0.000;2022-11-20T15:56:05;23.30;72.90
38746;DHT22;24488;0.000;0.000;2022-11-20T15:58:31;23.30;73.10
38746;DHT22;24488;0.000;0.000;2022-11-20T16:00:56;23.40;73.10
38746;DHT22;24488;0.000;0.000;2022-11-20T16:03:22;23.40;73.10
38746;DHT22;24488;0.000;0.000;2022-11-20T16:05:48;23.70;73.40
38746;DHT22;24488;0.000;0.000;2022-11-20T16:08:14;23.30;73.40
38746;DHT22;24488;0.000;0.000;2022-11-20T16:10:39;23.40;73.40
38746;DHT22;24488;0.000;0.000;2022-11-20T16:13:11;23.50;73.40
38746;DHT22;24488;0.000;0.000;2022-11-20T16:15:57;23.40;73.20
38746;DHT22;24488;0.000;0.000;2022-11-20T16:18:24;23.40;73.40
38746;DHT22;24488;0.000;0.000;2022-11-20T16:20:53;23.30;73.40
38746;DHT22;24488;0.000;0.000;2022-11-20T16:23:20;23.30;73.40
38746;DHT22;24488;0.000;0.000;2022-11-20T16:25:45;23.40;72.20
38746;DHT22;24488;0.000;0.000;2022-11-20T16:28:12;23.00;68.80
38746;DHT22;24488;0.000;0.000;2022-11-20T16:30:38;22.90;70.80
38746;DHT22;24488;0.000;0.000;2022-11-20T16:33:04;22.80;71.70
38746;DHT22;24488;0.000;0.000;2022-11-20T16:35:30;23.00;72.00
38746;DHT22;24488;0.000;0.000;2022-11-20T16:37:57;23.10;72.20
38746;DHT22;24488;0.000;0.000;2022-11-20T16:40:23;23.10;72.40
38746;DHT22;24488;0.000;0.000;2022-11-20T16:42:49;23.40;72.60
38746;DHT22;24488;0.000;0.000;2022-11-20T16:45:15;23.30;72.70
38746;DHT22;24488;0.000;0.000;2022-11-20T16:47:40;23.20;72.50
38746;DHT22;24488;0.000;0.000;2022-11-20T16:50:06;23.20;72.80
38746;DHT22;24488;0.000;0.000;2022-11-20T16:52:32;23.10;72.50
38746;DHT22;24488;0.000;0.000;2022-11-20T16:54:57;23.20;72.60
38746;DHT22;24488;0.000;0.000;2022-11-20T16:57:23;23.50;73.00
38746;DHT22;24488;0.000;0.000;2022-11-20T16:59:49;23.20;72.80
38746;DHT22;24488;0.000;0.000;2022-11-20T17:02:15;23.10;72.80
38746;DHT22;24488;0.000;0.000;2022-11-20T17:04:40;23.30;72.70
38746;DHT22;24488;0.000;0.000;2022-11-20T17:07:06;23.50;73.00
38746;DHT22;24488;0.000;0.000;2022-11-20T17:09:32;24.60;73.90
38746;DHT22;24488;0.000;0.000;2022-11-20T17:11:58;23.30;73.30
38746;DHT22;24488;0.000;0.000;2022-11-20T17:14:23;23.40;73.50
38746;DHT22;24488;0.000;0.000;2022-11-20T17:16:49;23.40;73.50
38746;DHT22;24488;0.000;0.000;2022-11-20T17:19:14;23.40;73.60
38746;DHT22;24488;0.000;0.000;2022-11-20T17:21:40;23.30;74.00
38746;DHT22;24488;0.000;0.000;2022-11-20T17:24:06;23.40;73.60
38746;DHT22;24488;0.000;0.000;2022-11-20T17:26:34;23.40;73.60
38746;DHT22;24488;0.000;0.000;2022-11-20T17:29:07;23.40;73.60
38746;DHT22;24488;0.000;0.000;2022-11-20T17:31:35;23.40;73.50
38746;DHT22;24488;0.000;0.000;2022-11-20T17:34:02;23.50;73.70
38746;DHT22;24488;0.000;0.000;2022-11-20T17:36:29;23.40;73.70
38746;DHT22;24488;0.000;0.000;2022-11-20T17:38:54;23.60;74.00
38746;DHT22;24488;0.000;0.000;2022-11-20T17:41:21;23.50;73.80
38746;DHT22;24488;0.000;0.000;2022-11-20T17:43:48;23.50;73.90
38746;DHT22;24488;0.000;0.000;2022-11-20T17:46:15;23.60;73.80
38746;DHT22;24488;0.000;0.000;2022-11-20T17:48:41;23.60;73.70
38746;DHT22;24488;0.000;0.000;2022-11-20T17:51:09;23.50;73.70
38746;DHT22;24488;0.000;0.000;2022-11-20T17:53:37;23.50;73.70